createdAt,value
2022-12-12T00:01:37.850Z,2.73
2022-12-12T00:04:05.202Z,2.55
2022-12-12T00:06:31.904Z,2.65
2022-12-12T00:08:58.934Z,2.74
2022-12-12T00:11:28.243Z,2.57
2022-12-12T00:13:55.447Z,2.55
2022-12-12T00:16:23.466Z,2.28
2022-12-12T00:18:50.129Z,2.90
2022-12-12T00:21:20.698Z,2.94
2022-12-12T00:23:53.324Z,2.83
2022-12-12T00:26:24.120Z,2.82
2022-12-12T00:28:51.313Z,2.73
2022-12-12T00:31:19.146Z,2.67
2022-12-12T00:33:48.197Z,2.62
2022-12-12T00:36:18.886Z,2.58
2022-12-12T00:38:46.082Z,2.58
2022-12-12T00:41:12.884Z,2.52
2022-12-12T00:43:39.814Z,2.50
2022-12-12T00:46:06.779Z,2.49
2022-12-12T00:48:34.579Z,2.41
2022-12-12T00:51:10.878Z,2.39
2022-12-12T00:53:39.090Z,2.32
2022-12-12T00:56:06.872Z,2.36
2022-12-12T00:58:34.636Z,2.28
2022-12-12T01:01:07.255Z,2.34
2022-12-12T01:03:35.398Z,2.02
2022-12-12T01:06:02.207Z,2.10
2022-12-12T01:08:29.312Z,2.19
2022-12-12T01:10:56.433Z,2.04
2022-12-12T01:13:23.544Z,1.81
2022-12-12T01:15:50.427Z,1.84
2022-12-12T01:18:18.483Z,1.49
2022-12-12T01:20:45.857Z,1.57
2022-12-12T01:23:13.133Z,1.73
2022-12-12T01:25:40.169Z,1.86
2022-12-12T01:28:07.510Z,2.12
2022-12-12T01:30:34.277Z,2.04
2022-12-12T01:33:02.249Z,2.18
2022-12-12T01:35:29.055Z,2.04
2022-12-12T01:37:55.902Z,2.13
2022-12-12T01:40:25.053Z,2.16
2022-12-12T01:42:52.874Z,2.08
2022-12-12T01:45:53.361Z,1.99
2022-12-12T01:48:22.495Z,1.89
2022-12-12T01:50:50.223Z,1.94
2022-12-12T01:53:19.398Z,1.81
2022-12-12T01:55:48.278Z,1.96
2022-12-12T01:58:15.712Z,1.90
2022-12-12T02:00:43.010Z,1.86
2022-12-12T02:03:10.101Z,1.96
2022-12-12T02:05:59.882Z,1.92
2022-12-12T02:08:28.612Z,1.87
2022-12-12T02:10:55.790Z,1.85
2022-12-12T02:13:29.643Z,1.72
2022-12-12T02:16:13.119Z,1.84
2022-12-12T02:18:39.673Z,1.86
2022-12-12T02:21:33.454Z,1.72
2022-12-12T02:24:05.967Z,1.90
2022-12-12T02:27:04.609Z,1.80
2022-12-12T02:30:08.389Z,1.69
2022-12-12T02:32:50.024Z,1.66
2022-12-12T02:35:39.646Z,1.68
2022-12-12T02:38:21.492Z,1.62
2022-12-12T02:41:00.634Z,1.65
2022-12-12T02:43:57.104Z,1.59
2022-12-12T02:46:26.671Z,1.54
2022-12-12T02:49:04.818Z,1.46
2022-12-12T02:51:34.851Z,1.31
2022-12-12T02:54:06.031Z,1.36
2022-12-12T02:56:46.084Z,1.41
2022-12-12T02:59:24.364Z,1.52
2022-12-12T03:02:28.241Z,1.48
2022-12-12T03:05:40.608Z,1.30
2022-12-12T03:08:28.710Z,1.29
2022-12-12T03:11:17.279Z,1.29
2022-12-12T03:13:51.732Z,1.32
2022-12-12T03:16:21.353Z,1.34
2022-12-12T03:19:09.800Z,1.22
2022-12-12T03:21:51.968Z,1.15
2022-12-12T03:24:33.821Z,1.36
2022-12-12T03:27:27.579Z,1.42
2022-12-12T03:30:00.727Z,1.51
2022-12-12T03:32:50.135Z,1.48
2022-12-12T03:35:23.107Z,1.14
2022-12-12T03:37:53.896Z,1.50
2022-12-12T03:40:32.047Z,1.50
2022-12-12T03:43:19.099Z,1.52
2022-12-12T03:46:00.715Z,1.54
2022-12-12T03:48:34.657Z,1.49
2022-12-12T03:51:10.407Z,1.59
2022-12-12T03:53:47.145Z,1.62
2022-12-12T03:56:36.962Z,1.52
2022-12-12T03:59:14.784Z,1.56
2022-12-12T04:01:51.138Z,1.28
2022-12-12T04:04:27.379Z,1.41
2022-12-12T04:07:06.047Z,1.22
2022-12-12T04:09:51.525Z,1.30
2022-12-12T04:13:00.711Z,1.34
2022-12-12T04:15:57.686Z,1.38
2022-12-12T04:18:38.557Z,1.29
2022-12-12T04:21:49.508Z,1.35
2022-12-12T04:24:21.332Z,1.32
2022-12-12T04:26:52.260Z,1.33
2022-12-12T04:29:31.021Z,1.30
2022-12-12T04:32:15.733Z,1.27
2022-12-12T04:35:15.358Z,1.25
2022-12-12T04:37:51.146Z,1.22
2022-12-12T04:40:25.230Z,1.39
2022-12-12T04:42:57.177Z,1.14
2022-12-12T04:45:28.955Z,1.17
2022-12-12T04:47:57.267Z,0.90
2022-12-12T04:50:28.147Z,0.78
2022-12-12T04:52:56.967Z,0.73
2022-12-12T04:55:34.557Z,0.65
2022-12-12T04:58:02.355Z,0.84
2022-12-12T05:00:36.328Z,0.94
2022-12-12T05:03:21.481Z,0.95
2022-12-12T05:05:55.236Z,0.95
2022-12-12T05:08:30.046Z,0.96
2022-12-12T05:11:00.578Z,0.99
2022-12-12T05:13:35.950Z,1.07
2022-12-12T05:16:26.823Z,1.22
2022-12-12T05:18:53.983Z,1.10
2022-12-12T05:21:20.721Z,1.18
2022-12-12T05:23:47.697Z,1.19
2022-12-12T05:26:23.207Z,1.22
2022-12-12T05:28:50.607Z,1.25
2022-12-12T05:31:17.772Z,1.30
2022-12-12T05:33:44.717Z,1.37
2022-12-12T05:36:11.515Z,1.38
2022-12-12T05:38:38.530Z,1.37
2022-12-12T05:41:06.283Z,1.41
2022-12-12T05:43:33.150Z,1.27
2022-12-12T05:46:00.367Z,1.33
2022-12-12T05:48:27.269Z,1.38
2022-12-12T05:50:54.368Z,1.39
2022-12-12T05:53:21.349Z,1.35
2022-12-12T05:55:51.538Z,1.20
2022-12-12T05:58:19.236Z,1.16
2022-12-12T06:00:50.373Z,1.20
2022-12-12T06:03:17.673Z,1.33
2022-12-12T06:05:45.115Z,1.28
2022-12-12T06:08:13.237Z,1.31
2022-12-12T06:10:40.366Z,1.37
2022-12-12T06:13:07.219Z,1.52
2022-12-12T06:15:35.109Z,1.43
2022-12-12T06:18:02.206Z,1.36
2022-12-12T06:20:30.604Z,1.17
2022-12-12T06:22:57.380Z,1.36
2022-12-12T06:25:25.011Z,1.30
2022-12-12T06:27:51.750Z,1.32
2022-12-12T06:30:18.950Z,1.26
2022-12-12T06:32:45.696Z,1.38
2022-12-12T06:35:12.685Z,1.26
2022-12-12T06:37:40.626Z,1.33
2022-12-12T06:40:09.431Z,1.31
2022-12-12T06:42:36.262Z,1.47
2022-12-12T06:45:03.965Z,1.47
2022-12-12T06:47:30.782Z,1.42
2022-12-12T06:49:57.469Z,1.52
2022-12-12T06:52:24.129Z,1.60
2022-12-12T06:54:50.833Z,1.52
2022-12-12T06:57:17.543Z,1.73
2022-12-12T06:59:44.389Z,1.83
2022-12-12T07:02:12.529Z,1.73
2022-12-12T07:04:39.528Z,1.74
2022-12-12T07:07:06.388Z,1.66
2022-12-12T07:09:33.320Z,1.83
2022-12-12T07:12:00.080Z,1.95
2022-12-12T07:14:26.715Z,2.00
2022-12-12T07:16:53.550Z,2.14
2022-12-12T07:19:20.343Z,2.19
2022-12-12T07:21:47.352Z,2.22
2022-12-12T07:24:15.816Z,2.13
2022-12-12T07:26:43.008Z,2.13
2022-12-12T07:29:09.722Z,2.40
2022-12-12T07:31:36.581Z,2.17
2022-12-12T07:34:03.606Z,2.65
2022-12-12T07:36:30.355Z,2.05
2022-12-12T07:38:57.211Z,2.42
2022-12-12T07:41:24.128Z,2.70
2022-12-12T07:43:52.402Z,2.85
2022-12-12T07:46:24.770Z,2.78
2022-12-12T07:48:53.175Z,2.86
2022-12-12T07:51:20.928Z,2.80
2022-12-12T07:53:47.897Z,2.71
2022-12-12T07:56:16.358Z,2.53
2022-12-12T07:58:44.184Z,2.65
2022-12-12T08:01:30.678Z,2.95
2022-12-12T08:03:57.354Z,2.96
2022-12-12T08:06:24.651Z,2.99
2022-12-12T08:08:52.585Z,2.74
2022-12-12T08:11:21.754Z,3.40
2022-12-12T08:13:49.039Z,3.25
2022-12-12T08:16:27.469Z,3.29
2022-12-12T08:18:58.772Z,3.57
2022-12-12T08:21:27.048Z,3.47
2022-12-12T08:24:44.485Z,3.66
2022-12-12T08:27:15.560Z,3.45
2022-12-12T08:29:45.930Z,3.60
2022-12-12T08:32:12.582Z,3.71
2022-12-12T08:34:39.234Z,3.57
2022-12-12T08:37:05.912Z,3.88
2022-12-12T08:39:32.977Z,3.99
2022-12-12T08:42:00.449Z,4.19
2022-12-12T08:44:27.360Z,4.06
2022-12-12T08:46:54.296Z,3.87
2022-12-12T08:49:21.056Z,3.90
2022-12-12T08:51:47.811Z,4.11
2022-12-12T08:54:14.650Z,4.31
2022-12-12T08:56:41.923Z,4.57
2022-12-12T08:59:08.596Z,4.79
2022-12-12T09:01:35.536Z,4.64
2022-12-12T09:04:02.806Z,4.79
2022-12-12T09:06:29.699Z,4.52
2022-12-12T09:08:57.576Z,4.72
2022-12-12T09:11:24.500Z,4.41
2022-12-12T09:13:51.676Z,4.97
2022-12-12T09:16:19.969Z,4.56
2022-12-12T09:18:49.361Z,4.27
2022-12-12T09:21:16.902Z,4.63
2022-12-12T09:23:43.779Z,5.22
2022-12-12T09:26:10.832Z,5.24
2022-12-12T09:28:38.027Z,4.69
2022-12-12T09:31:10.123Z,5.22
2022-12-12T09:33:37.241Z,5.32
2022-12-12T09:36:06.807Z,5.28
2022-12-12T09:38:34.619Z,5.13
2022-12-12T09:41:10.947Z,5.24
2022-12-12T09:43:44.633Z,5.33
2022-12-12T09:46:21.962Z,5.27
2022-12-12T09:48:48.607Z,5.24
2022-12-12T09:51:15.261Z,5.07
2022-12-12T09:53:45.527Z,4.96
2022-12-12T09:56:18.312Z,4.85
2022-12-12T09:59:08.197Z,4.59
2022-12-12T10:01:46.772Z,4.55
2022-12-12T10:04:50.605Z,4.66
2022-12-12T10:07:27.175Z,4.75
2022-12-12T10:10:17.372Z,4.76
2022-12-12T10:12:45.651Z,4.72
2022-12-12T10:15:30.433Z,4.61
2022-12-12T10:18:00.520Z,4.54
2022-12-12T10:20:30.708Z,4.60
2022-12-12T10:23:17.723Z,4.72
2022-12-12T10:25:53.477Z,4.75
2022-12-12T10:28:23.754Z,4.63
2022-12-12T10:31:12.242Z,4.80
2022-12-12T10:33:53.688Z,4.88
2022-12-12T10:36:44.289Z,4.47
2022-12-12T10:39:17.227Z,4.94
2022-12-12T10:42:10.489Z,4.66
2022-12-12T10:44:55.460Z,5.03
2022-12-12T10:47:23.404Z,5.25
2022-12-12T10:49:54.726Z,5.09
2022-12-12T10:52:23.913Z,5.02
2022-12-12T10:55:00.578Z,4.82
2022-12-12T10:57:37.849Z,5.68
2022-12-12T11:00:27.399Z,5.32
2022-12-12T11:03:00.200Z,4.99
2022-12-12T11:05:30.199Z,5.30
2022-12-12T11:08:18.220Z,4.90
2022-12-12T11:10:45.492Z,4.87
2022-12-12T11:13:12.401Z,5.76
2022-12-12T11:15:46.326Z,5.70
2022-12-12T11:18:21.894Z,5.35
2022-12-12T11:20:56.667Z,5.58
2022-12-12T11:23:25.954Z,5.31
2022-12-12T11:25:58.362Z,5.49
2022-12-12T11:28:28.656Z,5.78
2022-12-12T11:30:56.837Z,5.68
2022-12-12T11:33:31.383Z,5.13
2022-12-12T11:35:59.665Z,5.05
2022-12-12T11:38:38.597Z,5.59
2022-12-12T11:41:09.013Z,5.40
2022-12-12T11:43:38.409Z,5.23
2022-12-12T11:46:24.163Z,5.52
2022-12-12T11:48:53.643Z,5.47
2022-12-12T11:51:43.748Z,5.40
2022-12-12T11:54:20.958Z,5.54
2022-12-12T11:56:57.784Z,5.61
2022-12-12T11:59:42.744Z,5.51
2022-12-12T12:02:47.175Z,5.77
2022-12-12T12:05:34.124Z,5.80
2022-12-12T12:08:10.103Z,5.78
2022-12-12T12:11:06.220Z,6.00
2022-12-12T12:13:54.435Z,5.89
2022-12-12T12:16:46.881Z,6.45
2022-12-12T12:19:42.238Z,6.04
2022-12-12T12:22:39.310Z,6.15
2022-12-12T12:25:20.840Z,6.13
2022-12-12T12:27:52.639Z,6.23
2022-12-12T12:30:47.520Z,6.40
2022-12-12T12:33:32.795Z,6.49
2022-12-12T12:36:19.267Z,6.63
2022-12-12T12:39:02.190Z,6.52
2022-12-12T12:41:47.722Z,6.83
2022-12-12T12:44:23.738Z,6.91
2022-12-12T12:47:07.811Z,6.82
2022-12-12T12:49:44.900Z,6.71
2022-12-12T12:52:21.806Z,6.56
2022-12-12T12:54:49.661Z,6.70
2022-12-12T12:57:38.342Z,6.57
2022-12-12T13:00:16.600Z,6.54
2022-12-12T13:02:55.541Z,6.83
2022-12-12T13:05:50.504Z,6.81
2022-12-12T13:08:23.724Z,6.73
2022-12-12T13:10:58.832Z,6.64
2022-12-12T13:13:31.975Z,6.19
2022-12-12T13:16:08.816Z,6.59
2022-12-12T13:18:52.419Z,6.01
2022-12-12T13:21:52.333Z,6.79
2022-12-12T13:24:46.368Z,6.82
2022-12-12T13:27:45.966Z,5.90
2022-12-12T13:30:23.666Z,6.67
2022-12-12T13:33:24.547Z,6.80
2022-12-12T13:35:54.880Z,6.70
2022-12-12T13:38:32.328Z,6.18
2022-12-12T13:41:02.379Z,6.58
2022-12-12T13:43:31.076Z,5.89
2022-12-12T13:45:58.333Z,6.18
2022-12-12T13:48:28.075Z,6.09
2022-12-12T13:51:27.705Z,5.96
2022-12-12T13:54:13.762Z,5.97
2022-12-12T13:56:44.128Z,5.88
2022-12-12T13:59:30.426Z,5.61
2022-12-12T14:02:00.955Z,5.92
2022-12-12T14:04:35.677Z,5.94
2022-12-12T14:07:21.882Z,5.97
2022-12-12T14:09:52.454Z,5.27
2022-12-12T14:12:30.762Z,5.11
2022-12-12T14:15:02.440Z,5.56
2022-12-12T14:17:35.417Z,5.59
2022-12-12T14:20:07.881Z,5.04
2022-12-12T14:22:38.765Z,5.83
2022-12-12T14:25:20.674Z,5.52
2022-12-12T14:27:50.423Z,5.76
2022-12-12T14:30:23.085Z,5.50
2022-12-12T14:33:18.024Z,5.85
2022-12-12T14:35:53.994Z,5.44
2022-12-12T14:38:20.855Z,6.06
2022-12-12T14:41:02.080Z,5.75
2022-12-12T14:43:36.233Z,5.38
2022-12-12T14:46:03.970Z,5.16
2022-12-12T14:48:31.861Z,5.28
2022-12-12T14:51:10.640Z,5.34
2022-12-12T14:53:37.358Z,4.98
2022-12-12T14:56:09.968Z,4.66
2022-12-12T14:58:43.620Z,4.64
2022-12-12T15:01:10.932Z,4.30
2022-12-12T15:03:48.247Z,3.93
2022-12-12T15:06:24.098Z,4.10
2022-12-12T15:08:52.441Z,3.58
2022-12-12T15:11:25.373Z,3.77
2022-12-12T15:13:53.029Z,3.60
2022-12-12T15:16:26.395Z,3.04
2022-12-12T15:18:56.428Z,3.31
2022-12-12T15:21:23.511Z,2.91
2022-12-12T15:23:50.637Z,2.81
2022-12-12T15:26:26.494Z,3.09
2022-12-12T15:28:53.682Z,2.86
2022-12-12T15:31:21.221Z,2.70
2022-12-12T15:33:52.453Z,2.93
2022-12-12T15:36:19.069Z,3.06
2022-12-12T15:38:46.565Z,2.77
2022-12-12T15:41:14.405Z,2.69
2022-12-12T15:43:43.240Z,2.65
2022-12-12T15:46:15.206Z,2.56
2022-12-12T15:48:47.329Z,2.61
2022-12-12T15:51:21.089Z,1.91
2022-12-12T15:53:53.310Z,2.29
2022-12-12T15:56:20.408Z,2.45
2022-12-12T15:59:13.407Z,2.42
2022-12-12T16:01:40.690Z,2.07
2022-12-12T16:04:10.820Z,2.00
2022-12-12T16:06:40.987Z,1.87
2022-12-12T16:09:16.748Z,1.87
2022-12-12T16:11:47.095Z,1.81
2022-12-12T16:14:40.117Z,1.80
2022-12-12T16:17:26.157Z,1.58
2022-12-12T16:20:05.080Z,1.74
2022-12-12T16:22:48.620Z,1.56
2022-12-12T16:25:27.039Z,1.32
2022-12-12T16:28:02.600Z,1.61
2022-12-12T16:30:29.645Z,1.51
2022-12-12T16:32:56.259Z,1.51
2022-12-12T16:35:25.203Z,1.55
2022-12-12T16:37:55.713Z,1.55
2022-12-12T16:40:23.425Z,1.51
2022-12-12T16:43:09.427Z,1.29
2022-12-12T16:45:37.875Z,1.49
2022-12-12T16:48:16.218Z,1.44
2022-12-12T16:50:43.907Z,1.26
2022-12-12T16:53:11.421Z,1.16
2022-12-12T16:55:42.444Z,1.21
2022-12-12T16:58:09.922Z,1.24
2022-12-12T17:00:38.214Z,1.20
2022-12-12T17:03:05.946Z,1.27
2022-12-12T17:05:32.753Z,0.97
2022-12-12T17:08:00.567Z,0.62
2022-12-12T17:10:27.650Z,0.41
2022-12-12T17:12:55.107Z,0.53
2022-12-12T17:15:27.933Z,0.17
2022-12-12T17:17:55.578Z,0.14
2022-12-12T17:20:23.714Z,0.06
2022-12-12T17:22:52.165Z,-0.11
2022-12-12T17:25:20.142Z,0.00
2022-12-12T17:27:47.176Z,-0.20
2022-12-12T17:30:14.588Z,-0.32
2022-12-12T17:32:42.730Z,-0.33
2022-12-12T17:35:09.614Z,-0.50
2022-12-12T17:37:36.731Z,-0.48
2022-12-12T17:40:06.351Z,-0.36
2022-12-12T17:42:33.409Z,-0.51
2022-12-12T17:45:00.578Z,-0.49
2022-12-12T17:47:27.737Z,-0.76
2022-12-12T17:49:54.479Z,-0.48
2022-12-12T17:52:21.629Z,-0.56
2022-12-12T17:55:51.420Z,-0.48
2022-12-12T17:57:36.641Z,-0.50
2022-12-12T18:00:04.741Z,-0.77
2022-12-12T18:02:34.346Z,-0.47
2022-12-12T18:05:04.168Z,-0.90
2022-12-12T18:07:31.236Z,-0.53
2022-12-12T18:09:58.369Z,-0.90
2022-12-12T18:12:25.905Z,-1.06
2022-12-12T18:14:52.846Z,-0.83
2022-12-12T18:17:19.983Z,-0.65
2022-12-12T18:19:47.157Z,-1.21
2022-12-12T18:22:14.115Z,-0.70
2022-12-12T18:24:40.990Z,-1.23
2022-12-12T18:27:07.832Z,-1.07
2022-12-12T18:29:34.595Z,-1.18
2022-12-12T18:32:01.762Z,-0.70
2022-12-12T18:34:28.481Z,-0.88
2022-12-12T18:36:55.490Z,-0.77
2022-12-12T18:39:22.246Z,-0.86
2022-12-12T18:41:48.983Z,-0.98
2022-12-12T18:44:16.490Z,-0.79
2022-12-12T18:46:44.227Z,-0.76
2022-12-12T18:49:15.963Z,-0.67
2022-12-12T18:51:46.502Z,-0.67
2022-12-12T18:54:15.918Z,-1.45
2022-12-12T18:56:45.141Z,-0.63
2022-12-12T18:59:12.134Z,-0.62
2022-12-12T19:01:39.407Z,-0.65
2022-12-12T19:04:11.760Z,-0.75
2022-12-12T19:06:41.898Z,-0.56
2022-12-12T19:09:19.809Z,-0.47
2022-12-12T19:11:47.589Z,-0.55
2022-12-12T19:14:16.397Z,-0.60
2022-12-12T19:16:43.965Z,-0.64
2022-12-12T19:19:11.021Z,-0.60
2022-12-12T19:21:45.179Z,-0.45
2022-12-12T19:24:12.740Z,-0.58
2022-12-12T19:26:42.012Z,-0.62
2022-12-12T19:29:13.098Z,-0.27
2022-12-12T19:31:40.257Z,-0.46
2022-12-12T19:34:08.117Z,-0.29
2022-12-12T19:39:17.168Z,-0.42
2022-12-12T19:41:43.997Z,-0.34
2022-12-12T19:44:13.065Z,-0.27
2022-12-12T19:46:42.073Z,-0.24
2022-12-12T19:49:11.171Z,-0.17
2022-12-12T19:51:39.461Z,-0.38
2022-12-12T19:54:12.590Z,-0.29
2022-12-12T19:56:42.434Z,-0.14
2022-12-12T19:59:12.182Z,-0.12
2022-12-12T20:01:39.788Z,-0.18
2022-12-12T20:04:18.447Z,-0.10
2022-12-12T20:06:46.146Z,-0.17
2022-12-12T20:09:26.173Z,-0.25
2022-12-12T20:11:54.744Z,-0.34
2022-12-12T20:14:30.843Z,-0.45
2022-12-12T20:16:58.473Z,-0.44
2022-12-12T20:19:31.263Z,-0.50
2022-12-12T20:22:01.172Z,-0.64
2022-12-12T20:24:29.249Z,-0.65
2022-12-12T20:26:56.618Z,-0.74
2022-12-12T20:29:23.860Z,-0.99
2022-12-12T20:32:01.362Z,-1.14
2022-12-12T20:34:28.934Z,-0.84
2022-12-12T20:36:56.050Z,-1.49
2022-12-12T20:39:25.122Z,-1.47
2022-12-12T20:41:56.698Z,-1.09
2022-12-12T20:44:25.765Z,-1.24
2022-12-12T20:46:54.083Z,-1.05
2022-12-12T20:49:24.212Z,-1.12
2022-12-12T20:51:56.383Z,-0.99
2022-12-12T20:54:24.922Z,-1.04
2022-12-12T20:56:53.506Z,-1.12
2022-12-12T20:59:20.411Z,-1.07
2022-12-12T21:01:47.762Z,-1.32
2022-12-12T21:04:15.480Z,-1.18
2022-12-12T21:06:44.761Z,-1.09
2022-12-12T21:09:16.319Z,-1.36
2022-12-12T21:11:44.718Z,-1.26
2022-12-12T21:14:11.474Z,-1.39
2022-12-12T21:16:39.606Z,-1.76
2022-12-12T21:19:09.990Z,-1.07
2022-12-12T21:21:37.662Z,-1.58
2022-12-12T21:24:05.452Z,-1.34
2022-12-12T21:26:33.546Z,-1.17
2022-12-12T21:29:02.064Z,-1.22
2022-12-12T21:31:36.592Z,-1.19
2022-12-12T21:34:05.458Z,-1.42
2022-12-12T21:36:32.967Z,-1.60
2022-12-12T21:39:01.554Z,-1.27
2022-12-12T21:41:28.779Z,-1.52
2022-12-12T21:43:56.822Z,-1.27
2022-12-12T21:46:25.866Z,-1.26
2022-12-12T21:49:12.222Z,-1.26
2022-12-12T21:51:40.781Z,-1.56
2022-12-12T21:54:10.399Z,-1.22
2022-12-12T21:56:37.391Z,-1.31
2022-12-12T21:59:04.425Z,-1.36
2022-12-12T22:01:34.564Z,-1.88
2022-12-12T22:04:01.983Z,-1.38
2022-12-12T22:06:31.352Z,-1.40
2022-12-12T22:09:00.331Z,-1.57
2022-12-12T22:11:40.394Z,-1.55
2022-12-12T22:14:14.732Z,-1.52
2022-12-12T22:16:41.491Z,-1.59
2022-12-12T22:19:11.601Z,-1.54
2022-12-12T22:21:38.795Z,-1.62
2022-12-12T22:24:06.107Z,-1.98
2022-12-12T22:26:37.000Z,-1.64
2022-12-12T22:29:10.760Z,-2.25
2022-12-12T22:31:39.270Z,-1.96
2022-12-12T22:34:12.118Z,-1.73
2022-12-12T22:36:46.333Z,-1.74
2022-12-12T22:39:17.761Z,-2.11
2022-12-12T22:41:50.801Z,-1.84
2022-12-12T22:44:19.663Z,-1.96
2022-12-12T22:46:48.632Z,-1.88
2022-12-12T22:49:18.880Z,-1.87
2022-12-12T22:51:46.887Z,-1.90
2022-12-12T22:54:13.878Z,-1.93
2022-12-12T22:56:41.947Z,-1.89
2022-12-12T22:59:12.074Z,-2.00
2022-12-12T23:01:39.475Z,-2.07
2022-12-12T23:04:06.950Z,-2.06
2022-12-12T23:06:35.878Z,-2.35
2022-12-12T23:09:08.164Z,-2.15
2022-12-12T23:11:38.193Z,-2.41
2022-12-12T23:14:09.313Z,-2.12
2022-12-12T23:16:36.087Z,-2.02
2022-12-12T23:19:05.776Z,-2.01
2022-12-12T23:21:34.453Z,-1.91
2022-12-12T23:24:01.772Z,-2.51
2022-12-12T23:26:30.339Z,-1.85
2022-12-12T23:28:58.965Z,-1.96
2022-12-12T23:31:29.334Z,-1.94
2022-12-12T23:34:04.856Z,-2.01
2022-12-12T23:36:32.003Z,-1.85
2022-12-12T23:39:06.891Z,-1.86
2022-12-12T23:41:36.663Z,-1.86
2022-12-12T23:44:04.526Z,-1.84
2022-12-12T23:46:34.302Z,-1.89
2022-12-12T23:49:13.730Z,-1.85
2022-12-12T23:51:49.411Z,-1.89
2022-12-12T23:54:22.299Z,-1.89
2022-12-12T23:56:50.261Z,-1.66
2022-12-12T23:59:18.903Z,-1.59
